sensor_id;sensor_type;location;lat;lon;timestamp;P1;durP1;ratioP1;P2;durP2;ratioP2
65971;SDS011;52726;48.852;9.152;2023-07-29T00:00:51;1.77;;;1.30;;
65971;SDS011;52726;48.852;9.152;2023-07-29T00:03:16;2.28;;;1.27;;
65971;SDS011;52726;48.852;9.152;2023-07-29T00:05:41;0.90;;;0.90;;
65971;SDS011;52726;48.852;9.152;2023-07-29T00:08:13;1.83;;;1.30;;
65971;SDS011;52726;48.852;9.152;2023-07-29T00:10:38;1.15;;;1.10;;
65971;SDS011;52726;48.852;9.152;2023-07-29T00:13:04;1.27;;;1.17;;
65971;SDS011;52726;48.852;9.152;2023-07-29T00:15:30;5.63;;;2.78;;
65971;SDS011;52726;48.852;9.152;2023-07-29T00:17:56;17.05;;;5.45;;
65971;SDS011;52726;48.852;9.152;2023-07-29T00:20:21;32.13;;;11.75;;
65971;SDS011;52726;48.852;9.152;2023-07-29T00:22:47;15.27;;;6.50;;
65971;SDS011;52726;48.852;9.152;2023-07-29T00:25:15;3.42;;;2.10;;
65971;SDS011;52726;48.852;9.152;2023-07-29T00:27:40;5.60;;;2.03;;
65971;SDS011;52726;48.852;9.152;2023-07-29T00:30:06;3.50;;;1.50;;
65971;SDS011;52726;48.852;9.152;2023-07-29T00:32:32;2.90;;;1.65;;
65971;SDS011;52726;48.852;9.152;2023-07-29T00:34:58;1.67;;;1.33;;
65971;SDS011;52726;48.852;9.152;2023-07-29T00:37:25;1.85;;;1.60;;
65971;SDS011;52726;48.852;9.152;2023-07-29T00:39:51;1.67;;;1.58;;
65971;SDS011;52726;48.852;9.152;2023-07-29T00:42:16;1.77;;;1.50;;
65971;SDS011;52726;48.852;9.152;2023-07-29T00:44:41;1.85;;;1.70;;
65971;SDS011;52726;48.852;9.152;2023-07-29T00:47:07;3.47;;;1.63;;
65971;SDS011;52726;48.852;9.152;2023-07-29T00:49:32;3.97;;;1.70;;
65971;SDS011;52726;48.852;9.152;2023-07-29T00:51:58;2.83;;;1.67;;
65971;SDS011;52726;48.852;9.152;2023-07-29T00:54:24;1.90;;;1.40;;
65971;SDS011;52726;48.852;9.152;2023-07-29T00:56:49;6.43;;;1.58;;
65971;SDS011;52726;48.852;9.152;2023-07-29T00:59:15;3.05;;;1.45;;
65971;SDS011;52726;48.852;9.152;2023-07-29T01:01:40;2.10;;;1.65;;
65971;SDS011;52726;48.852;9.152;2023-07-29T01:04:06;3.78;;;2.00;;
65971;SDS011;52726;48.852;9.152;2023-07-29T01:09:02;1.50;;;1.40;;
65971;SDS011;52726;48.852;9.152;2023-07-29T01:16:52;5.82;;;2.05;;
65971;SDS011;52726;48.852;9.152;2023-07-29T01:22:23;2.05;;;1.85;;
65971;SDS011;52726;48.852;9.152;2023-07-29T01:24:49;3.08;;;1.95;;
65971;SDS011;52726;48.852;9.152;2023-07-29T01:27:14;2.55;;;1.98;;
65971;SDS011;52726;48.852;9.152;2023-07-29T01:29:40;3.33;;;2.03;;
65971;SDS011;52726;48.852;9.152;2023-07-29T01:32:13;2.55;;;1.80;;
65971;SDS011;52726;48.852;9.152;2023-07-29T01:34:47;4.90;;;1.90;;
65971;SDS011;52726;48.852;9.152;2023-07-29T01:37:19;2.15;;;1.90;;
65971;SDS011;52726;48.852;9.152;2023-07-29T01:39:50;1.92;;;1.58;;
65971;SDS011;52726;48.852;9.152;2023-07-29T01:42:19;2.45;;;1.83;;
65971;SDS011;52726;48.852;9.152;2023-07-29T01:44:45;3.38;;;2.03;;
65971;SDS011;52726;48.852;9.152;2023-07-29T01:47:10;5.38;;;2.08;;
65971;SDS011;52726;48.852;9.152;2023-07-29T01:49:36;3.20;;;1.90;;
65971;SDS011;52726;48.852;9.152;2023-07-29T01:52:01;4.32;;;2.00;;
65971;SDS011;52726;48.852;9.152;2023-07-29T01:54:27;2.13;;;1.83;;
65971;SDS011;52726;48.852;9.152;2023-07-29T01:56:53;7.57;;;2.40;;
65971;SDS011;52726;48.852;9.152;2023-07-29T01:59:18;3.20;;;1.80;;
65971;SDS011;52726;48.852;9.152;2023-07-29T02:01:43;1.85;;;1.58;;
65971;SDS011;52726;48.852;9.152;2023-07-29T02:04:09;2.85;;;1.73;;
65971;SDS011;52726;48.852;9.152;2023-07-29T02:06:35;2.28;;;1.95;;
65971;SDS011;52726;48.852;9.152;2023-07-29T02:09:00;3.08;;;1.88;;
65971;SDS011;52726;48.852;9.152;2023-07-29T02:11:25;2.95;;;1.70;;
65971;SDS011;52726;48.852;9.152;2023-07-29T02:13:53;3.95;;;1.50;;
65971;SDS011;52726;48.852;9.152;2023-07-29T02:16:19;3.83;;;1.83;;
65971;SDS011;52726;48.852;9.152;2023-07-29T02:18:44;2.65;;;1.45;;
65971;SDS011;52726;48.852;9.152;2023-07-29T02:21:10;1.70;;;1.60;;
65971;SDS011;52726;48.852;9.152;2023-07-29T02:23:35;5.53;;;1.83;;
65971;SDS011;52726;48.852;9.152;2023-07-29T02:26:00;1.60;;;1.50;;
65971;SDS011;52726;48.852;9.152;2023-07-29T02:28:26;2.28;;;1.40;;
65971;SDS011;52726;48.852;9.152;2023-07-29T02:31:08;3.15;;;1.48;;
65971;SDS011;52726;48.852;9.152;2023-07-29T02:33:41;2.10;;;1.65;;
65971;SDS011;52726;48.852;9.152;2023-07-29T02:36:07;3.00;;;1.45;;
65971;SDS011;52726;48.852;9.152;2023-07-29T02:38:32;2.75;;;1.73;;
65971;SDS011;52726;48.852;9.152;2023-07-29T02:40:58;1.80;;;1.70;;
65971;SDS011;52726;48.852;9.152;2023-07-29T02:43:23;3.72;;;1.83;;
65971;SDS011;52726;48.852;9.152;2023-07-29T02:45:48;1.73;;;1.55;;
65971;SDS011;52726;48.852;9.152;2023-07-29T02:48:14;3.08;;;1.40;;
65971;SDS011;52726;48.852;9.152;2023-07-29T02:50:39;2.72;;;1.95;;
65971;SDS011;52726;48.852;9.152;2023-07-29T02:53:04;2.10;;;1.60;;
65971;SDS011;52726;48.852;9.152;2023-07-29T02:55:30;3.78;;;1.80;;
65971;SDS011;52726;48.852;9.152;2023-07-29T02:57:55;4.25;;;1.73;;
65971;SDS011;52726;48.852;9.152;2023-07-29T03:00:20;4.75;;;1.60;;
65971;SDS011;52726;48.852;9.152;2023-07-29T03:02:47;2.97;;;1.90;;
65971;SDS011;52726;48.852;9.152;2023-07-29T03:05:13;1.63;;;1.50;;
65971;SDS011;52726;48.852;9.152;2023-07-29T03:07:38;1.45;;;1.35;;
65971;SDS011;52726;48.852;9.152;2023-07-29T03:10:04;2.35;;;1.80;;
65971;SDS011;52726;48.852;9.152;2023-07-29T03:12:30;2.70;;;1.83;;
65971;SDS011;52726;48.852;9.152;2023-07-29T03:14:56;1.60;;;1.40;;
65971;SDS011;52726;48.852;9.152;2023-07-29T03:17:21;1.45;;;1.27;;
65971;SDS011;52726;48.852;9.152;2023-07-29T03:19:46;3.42;;;1.58;;
65971;SDS011;52726;48.852;9.152;2023-07-29T03:22:12;2.25;;;1.60;;
65971;SDS011;52726;48.852;9.152;2023-07-29T03:24:37;2.42;;;1.60;;
65971;SDS011;52726;48.852;9.152;2023-07-29T03:27:02;3.78;;;1.42;;
65971;SDS011;52726;48.852;9.152;2023-07-29T03:29:28;8.63;;;2.03;;
65971;SDS011;52726;48.852;9.152;2023-07-29T03:31:53;2.05;;;1.60;;
65971;SDS011;52726;48.852;9.152;2023-07-29T03:34:19;2.70;;;1.67;;
65971;SDS011;52726;48.852;9.152;2023-07-29T03:36:45;1.70;;;1.60;;
65971;SDS011;52726;48.852;9.152;2023-07-29T03:39:12;1.70;;;1.38;;
65971;SDS011;52726;48.852;9.152;2023-07-29T03:41:38;2.28;;;1.83;;
65971;SDS011;52726;48.852;9.152;2023-07-29T03:44:03;3.10;;;1.65;;
65971;SDS011;52726;48.852;9.152;2023-07-29T03:46:29;2.83;;;1.65;;
65971;SDS011;52726;48.852;9.152;2023-07-29T03:48:54;8.65;;;1.63;;
65971;SDS011;52726;48.852;9.152;2023-07-29T03:51:19;4.55;;;1.70;;
65971;SDS011;52726;48.852;9.152;2023-07-29T03:53:46;3.95;;;2.17;;
65971;SDS011;52726;48.852;9.152;2023-07-29T03:56:12;2.33;;;1.40;;
65971;SDS011;52726;48.852;9.152;2023-07-29T03:58:37;2.88;;;1.58;;
65971;SDS011;52726;48.852;9.152;2023-07-29T04:01:02;1.30;;;1.25;;
65971;SDS011;52726;48.852;9.152;2023-07-29T04:03:30;3.85;;;1.80;;
65971;SDS011;52726;48.852;9.152;2023-07-29T04:05:56;4.88;;;1.95;;
65971;SDS011;52726;48.852;9.152;2023-07-29T04:08:21;3.08;;;1.60;;
65971;SDS011;52726;48.852;9.152;2023-07-29T04:10:47;1.77;;;1.67;;
65971;SDS011;52726;48.852;9.152;2023-07-29T04:13:13;5.57;;;2.00;;
65971;SDS011;52726;48.852;9.152;2023-07-29T04:15:38;2.95;;;1.65;;
65971;SDS011;52726;48.852;9.152;2023-07-29T04:18:03;6.97;;;1.90;;
65971;SDS011;52726;48.852;9.152;2023-07-29T04:20:29;2.67;;;1.73;;
65971;SDS011;52726;48.852;9.152;2023-07-29T04:22:54;1.95;;;1.65;;
65971;SDS011;52726;48.852;9.152;2023-07-29T04:25:19;3.50;;;2.17;;
65971;SDS011;52726;48.852;9.152;2023-07-29T04:27:45;3.08;;;1.70;;
65971;SDS011;52726;48.852;9.152;2023-07-29T04:30:10;2.22;;;1.70;;
65971;SDS011;52726;48.852;9.152;2023-07-29T04:32:35;4.70;;;1.65;;
65971;SDS011;52726;48.852;9.152;2023-07-29T04:35:01;2.00;;;1.45;;
65971;SDS011;52726;48.852;9.152;2023-07-29T04:37:26;3.08;;;1.90;;
65971;SDS011;52726;48.852;9.152;2023-07-29T04:39:52;6.15;;;1.65;;
65971;SDS011;52726;48.852;9.152;2023-07-29T04:42:17;1.88;;;1.65;;
65971;SDS011;52726;48.852;9.152;2023-07-29T04:44:42;3.08;;;1.52;;
65971;SDS011;52726;48.852;9.152;2023-07-29T04:47:08;2.05;;;1.77;;
65971;SDS011;52726;48.852;9.152;2023-07-29T04:49:33;5.50;;;1.73;;
65971;SDS011;52726;48.852;9.152;2023-07-29T04:51:59;4.85;;;1.80;;
65971;SDS011;52726;48.852;9.152;2023-07-29T04:54:24;3.67;;;1.90;;
65971;SDS011;52726;48.852;9.152;2023-07-29T04:56:49;3.17;;;1.75;;
65971;SDS011;52726;48.852;9.152;2023-07-29T04:59:15;4.00;;;1.75;;
65971;SDS011;52726;48.852;9.152;2023-07-29T05:01:40;3.58;;;1.90;;
65971;SDS011;52726;48.852;9.152;2023-07-29T05:04:07;2.50;;;1.90;;
65971;SDS011;52726;48.852;9.152;2023-07-29T05:06:33;2.55;;;1.95;;
65971;SDS011;52726;48.852;9.152;2023-07-29T05:08:59;4.93;;;1.60;;
65971;SDS011;52726;48.852;9.152;2023-07-29T05:11:37;2.63;;;1.90;;
65971;SDS011;52726;48.852;9.152;2023-07-29T05:14:03;1.63;;;1.52;;
65971;SDS011;52726;48.852;9.152;2023-07-29T05:16:31;4.93;;;1.83;;
65971;SDS011;52726;48.852;9.152;2023-07-29T05:18:56;4.97;;;1.98;;
65971;SDS011;52726;48.852;9.152;2023-07-29T05:21:21;3.28;;;2.10;;
65971;SDS011;52726;48.852;9.152;2023-07-29T05:23:47;5.53;;;2.08;;
65971;SDS011;52726;48.852;9.152;2023-07-29T05:26:12;4.15;;;1.80;;
65971;SDS011;52726;48.852;9.152;2023-07-29T05:28:37;2.30;;;1.92;;
65971;SDS011;52726;48.852;9.152;2023-07-29T05:31:03;6.63;;;2.20;;
65971;SDS011;52726;48.852;9.152;2023-07-29T05:33:28;3.58;;;2.00;;
65971;SDS011;52726;48.852;9.152;2023-07-29T05:35:54;2.50;;;2.15;;
65971;SDS011;52726;48.852;9.152;2023-07-29T05:38:19;4.85;;;2.40;;
65971;SDS011;52726;48.852;9.152;2023-07-29T05:40:45;4.07;;;2.08;;
65971;SDS011;52726;48.852;9.152;2023-07-29T05:43:12;3.83;;;1.98;;
65971;SDS011;52726;48.852;9.152;2023-07-29T05:45:39;2.72;;;2.00;;
65971;SDS011;52726;48.852;9.152;2023-07-29T05:48:04;2.75;;;1.73;;
65971;SDS011;52726;48.852;9.152;2023-07-29T05:50:31;3.60;;;2.35;;
65971;SDS011;52726;48.852;9.152;2023-07-29T05:52:56;6.15;;;2.08;;
65971;SDS011;52726;48.852;9.152;2023-07-29T05:55:21;3.63;;;2.15;;
65971;SDS011;52726;48.852;9.152;2023-07-29T05:57:47;2.28;;;1.90;;
65971;SDS011;52726;48.852;9.152;2023-07-29T06:00:12;3.67;;;1.98;;
65971;SDS011;52726;48.852;9.152;2023-07-29T06:02:38;5.22;;;2.03;;
65971;SDS011;52726;48.852;9.152;2023-07-29T06:05:06;3.28;;;1.95;;
65971;SDS011;52726;48.852;9.152;2023-07-29T06:07:32;2.47;;;1.70;;
65971;SDS011;52726;48.852;9.152;2023-07-29T06:09:58;2.90;;;1.90;;
65971;SDS011;52726;48.852;9.152;2023-07-29T06:12:24;2.50;;;1.77;;
65971;SDS011;52726;48.852;9.152;2023-07-29T06:14:49;3.72;;;1.70;;
65971;SDS011;52726;48.852;9.152;2023-07-29T06:17:15;1.92;;;1.73;;
65971;SDS011;52726;48.852;9.152;2023-07-29T06:19:40;2.20;;;1.90;;
65971;SDS011;52726;48.852;9.152;2023-07-29T06:22:05;6.72;;;1.90;;
65971;SDS011;52726;48.852;9.152;2023-07-29T06:24:31;3.90;;;2.15;;
65971;SDS011;52726;48.852;9.152;2023-07-29T06:26:57;8.38;;;2.13;;
65971;SDS011;52726;48.852;9.152;2023-07-29T06:29:22;5.30;;;2.00;;
65971;SDS011;52726;48.852;9.152;2023-07-29T06:31:48;3.00;;;1.90;;
65971;SDS011;52726;48.852;9.152;2023-07-29T06:34:13;4.75;;;2.08;;
65971;SDS011;52726;48.852;9.152;2023-07-29T06:36:39;2.53;;;1.90;;
65971;SDS011;52726;48.852;9.152;2023-07-29T06:39:04;4.20;;;1.83;;
65971;SDS011;52726;48.852;9.152;2023-07-29T06:41:29;4.75;;;1.77;;
65971;SDS011;52726;48.852;9.152;2023-07-29T06:43:55;2.40;;;1.70;;
65971;SDS011;52726;48.852;9.152;2023-07-29T06:46:21;3.85;;;2.10;;
65971;SDS011;52726;48.852;9.152;2023-07-29T06:48:46;2.22;;;1.83;;
65971;SDS011;52726;48.852;9.152;2023-07-29T06:51:11;3.08;;;1.90;;
65971;SDS011;52726;48.852;9.152;2023-07-29T06:53:37;2.40;;;1.92;;
65971;SDS011;52726;48.852;9.152;2023-07-29T06:56:02;3.45;;;1.90;;
65971;SDS011;52726;48.852;9.152;2023-07-29T06:58:28;3.35;;;1.80;;
65971;SDS011;52726;48.852;9.152;2023-07-29T07:00:53;3.55;;;2.17;;
65971;SDS011;52726;48.852;9.152;2023-07-29T07:03:18;2.88;;;2.13;;
65971;SDS011;52726;48.852;9.152;2023-07-29T07:05:44;1.52;;;1.42;;
65971;SDS011;52726;48.852;9.152;2023-07-29T07:08:10;3.17;;;1.65;;
65971;SDS011;52726;48.852;9.152;2023-07-29T07:10:35;1.77;;;1.50;;
65971;SDS011;52726;48.852;9.152;2023-07-29T07:13:00;1.90;;;1.45;;
65971;SDS011;52726;48.852;9.152;2023-07-29T07:15:26;2.85;;;1.38;;
65971;SDS011;52726;48.852;9.152;2023-07-29T07:17:51;2.90;;;1.50;;
65971;SDS011;52726;48.852;9.152;2023-07-29T07:20:16;2.08;;;1.40;;
65971;SDS011;52726;48.852;9.152;2023-07-29T07:22:42;1.30;;;1.20;;
65971;SDS011;52726;48.852;9.152;2023-07-29T07:25:07;1.38;;;1.27;;
65971;SDS011;52726;48.852;9.152;2023-07-29T07:27:33;3.38;;;1.52;;
65971;SDS011;52726;48.852;9.152;2023-07-29T07:29:58;1.95;;;1.58;;
65971;SDS011;52726;48.852;9.152;2023-07-29T07:32:24;3.20;;;1.30;;
65971;SDS011;52726;48.852;9.152;2023-07-29T07:34:49;1.98;;;1.50;;
65971;SDS011;52726;48.852;9.152;2023-07-29T07:37:14;2.25;;;1.55;;
65971;SDS011;52726;48.852;9.152;2023-07-29T07:39:40;1.40;;;1.30;;
65971;SDS011;52726;48.852;9.152;2023-07-29T07:42:05;3.60;;;1.73;;
65971;SDS011;52726;48.852;9.152;2023-07-29T07:44:31;1.23;;;1.13;;
65971;SDS011;52726;48.852;9.152;2023-07-29T07:46:56;1.48;;;1.30;;
65971;SDS011;52726;48.852;9.152;2023-07-29T07:49:22;2.33;;;1.30;;
65971;SDS011;52726;48.852;9.152;2023-07-29T07:51:47;1.30;;;1.20;;
65971;SDS011;52726;48.852;9.152;2023-07-29T07:54:13;1.33;;;1.23;;
65971;SDS011;52726;48.852;9.152;2023-07-29T07:56:38;0.98;;;0.98;;
65971;SDS011;52726;48.852;9.152;2023-07-29T07:59:03;5.30;;;1.50;;
65971;SDS011;52726;48.852;9.152;2023-07-29T08:01:33;1.95;;;1.42;;
65971;SDS011;52726;48.852;9.152;2023-07-29T08:04:03;2.67;;;1.40;;
65971;SDS011;52726;48.852;9.152;2023-07-29T08:06:28;2.50;;;1.13;;
65971;SDS011;52726;48.852;9.152;2023-07-29T08:08:55;1.60;;;1.48;;
65971;SDS011;52726;48.852;9.152;2023-07-29T08:11:20;1.83;;;1.05;;
65971;SDS011;52726;48.852;9.152;2023-07-29T08:13:45;1.30;;;1.10;;
65971;SDS011;52726;48.852;9.152;2023-07-29T08:16:12;1.58;;;1.15;;
65971;SDS011;52726;48.852;9.152;2023-07-29T08:18:37;1.20;;;1.15;;
65971;SDS011;52726;48.852;9.152;2023-07-29T08:21:02;1.25;;;1.15;;
65971;SDS011;52726;48.852;9.152;2023-07-29T08:23:28;1.02;;;0.88;;
65971;SDS011;52726;48.852;9.152;2023-07-29T08:25:55;2.13;;;0.90;;
65971;SDS011;52726;48.852;9.152;2023-07-29T08:28:26;1.13;;;1.00;;
65971;SDS011;52726;48.852;9.152;2023-07-29T08:30:52;4.63;;;0.90;;
65971;SDS011;52726;48.852;9.152;2023-07-29T08:33:17;0.85;;;0.85;;
65971;SDS011;52726;48.852;9.152;2023-07-29T08:35:42;2.20;;;0.90;;
65971;SDS011;52726;48.852;9.152;2023-07-29T08:38:08;0.80;;;0.80;;
65971;SDS011;52726;48.852;9.152;2023-07-29T08:40:34;0.77;;;0.77;;
65971;SDS011;52726;48.852;9.152;2023-07-29T08:43:03;3.35;;;1.25;;
65971;SDS011;52726;48.852;9.152;2023-07-29T08:45:30;0.98;;;0.95;;
65971;SDS011;52726;48.852;9.152;2023-07-29T08:48:00;1.23;;;1.10;;
65971;SDS011;52726;48.852;9.152;2023-07-29T08:50:28;2.40;;;0.85;;
65971;SDS011;52726;48.852;9.152;2023-07-29T08:52:56;2.80;;;1.30;;
65971;SDS011;52726;48.852;9.152;2023-07-29T08:55:22;0.95;;;0.95;;
65971;SDS011;52726;48.852;9.152;2023-07-29T08:57:47;0.70;;;0.70;;
65971;SDS011;52726;48.852;9.152;2023-07-29T09:00:13;1.30;;;1.10;;
65971;SDS011;52726;48.852;9.152;2023-07-29T09:02:38;1.00;;;0.90;;
65971;SDS011;52726;48.852;9.152;2023-07-29T09:05:04;1.60;;;0.98;;
65971;SDS011;52726;48.852;9.152;2023-07-29T09:07:30;2.10;;;0.90;;
65971;SDS011;52726;48.852;9.152;2023-07-29T09:09:57;2.38;;;0.98;;
65971;SDS011;52726;48.852;9.152;2023-07-29T09:12:23;0.73;;;0.73;;
65971;SDS011;52726;48.852;9.152;2023-07-29T09:14:51;1.10;;;0.88;;
65971;SDS011;52726;48.852;9.152;2023-07-29T09:17:17;1.95;;;1.10;;
65971;SDS011;52726;48.852;9.152;2023-07-29T09:19:46;0.80;;;0.80;;
65971;SDS011;52726;48.852;9.152;2023-07-29T09:22:19;0.93;;;0.90;;
65971;SDS011;52726;48.852;9.152;2023-07-29T09:24:46;1.85;;;1.00;;
65971;SDS011;52726;48.852;9.152;2023-07-29T09:27:27;1.05;;;0.98;;
65971;SDS011;52726;48.852;9.152;2023-07-29T09:29:55;0.90;;;0.90;;
65971;SDS011;52726;48.852;9.152;2023-07-29T09:32:21;1.40;;;1.00;;
65971;SDS011;52726;48.852;9.152;2023-07-29T09:34:47;0.95;;;0.70;;
65971;SDS011;52726;48.852;9.152;2023-07-29T09:37:20;1.73;;;1.00;;
65971;SDS011;52726;48.852;9.152;2023-07-29T09:39:47;1.13;;;0.90;;
65971;SDS011;52726;48.852;9.152;2023-07-29T09:42:20;1.30;;;1.13;;
65971;SDS011;52726;48.852;9.152;2023-07-29T09:44:47;2.08;;;1.00;;
65971;SDS011;52726;48.852;9.152;2023-07-29T09:47:24;1.52;;;1.33;;
65971;SDS011;52726;48.852;9.152;2023-07-29T09:49:50;2.22;;;1.08;;
65971;SDS011;52726;48.852;9.152;2023-07-29T09:52:17;2.42;;;0.88;;
65971;SDS011;52726;48.852;9.152;2023-07-29T09:54:43;0.93;;;0.85;;
65971;SDS011;52726;48.852;9.152;2023-07-29T09:57:10;1.20;;;1.10;;
65971;SDS011;52726;48.852;9.152;2023-07-29T09:59:36;0.90;;;0.90;;
65971;SDS011;52726;48.852;9.152;2023-07-29T10:02:01;1.30;;;1.25;;
65971;SDS011;52726;48.852;9.152;2023-07-29T10:04:27;1.00;;;1.00;;
65971;SDS011;52726;48.852;9.152;2023-07-29T10:06:54;1.27;;;1.15;;
65971;SDS011;52726;48.852;9.152;2023-07-29T10:09:20;1.10;;;1.00;;
65971;SDS011;52726;48.852;9.152;2023-07-29T10:11:46;1.35;;;0.90;;
65971;SDS011;52726;48.852;9.152;2023-07-29T10:14:12;0.90;;;0.75;;
65971;SDS011;52726;48.852;9.152;2023-07-29T10:16:39;0.80;;;0.80;;
65971;SDS011;52726;48.852;9.152;2023-07-29T10:19:07;0.95;;;0.70;;
65971;SDS011;52726;48.852;9.152;2023-07-29T10:21:32;0.68;;;0.68;;
65971;SDS011;52726;48.852;9.152;2023-07-29T10:23:59;0.55;;;0.50;;
65971;SDS011;52726;48.852;9.152;2023-07-29T10:26:26;0.70;;;0.70;;
65971;SDS011;52726;48.852;9.152;2023-07-29T10:28:53;0.60;;;0.60;;
65971;SDS011;52726;48.852;9.152;2023-07-29T10:31:24;7.72;;;1.00;;
65971;SDS011;52726;48.852;9.152;2023-07-29T10:33:50;1.27;;;0.90;;
65971;SDS011;52726;48.852;9.152;2023-07-29T10:36:15;0.98;;;0.90;;
65971;SDS011;52726;48.852;9.152;2023-07-29T10:38:41;0.75;;;0.75;;
65971;SDS011;52726;48.852;9.152;2023-07-29T10:41:07;0.90;;;0.90;;
65971;SDS011;52726;48.852;9.152;2023-07-29T10:43:34;1.23;;;0.90;;
65971;SDS011;52726;48.852;9.152;2023-07-29T10:46:17;0.75;;;0.75;;
65971;SDS011;52726;48.852;9.152;2023-07-29T10:48:53;2.00;;;0.68;;
65971;SDS011;52726;48.852;9.152;2023-07-29T10:51:35;0.52;;;0.52;;
65971;SDS011;52726;48.852;9.152;2023-07-29T10:54:12;2.85;;;0.93;;
65971;SDS011;52726;48.852;9.152;2023-07-29T10:56:42;0.73;;;0.73;;
65971;SDS011;52726;48.852;9.152;2023-07-29T11:01:38;2.15;;;1.10;;
65971;SDS011;52726;48.852;9.152;2023-07-29T11:20:18;5.68;;;0.88;;
65971;SDS011;52726;48.852;9.152;2023-07-29T11:22:45;4.30;;;1.10;;
65971;SDS011;52726;48.852;9.152;2023-07-29T11:25:12;0.80;;;0.80;;
65971;SDS011;52726;48.852;9.152;2023-07-29T11:27:40;0.77;;;0.77;;
65971;SDS011;52726;48.852;9.152;2023-07-29T11:30:13;1.55;;;0.88;;
65971;SDS011;52726;48.852;9.152;2023-07-29T11:32:40;0.98;;;0.60;;
65971;SDS011;52726;48.852;9.152;2023-07-29T11:35:07;2.58;;;0.73;;
65971;SDS011;52726;48.852;9.152;2023-07-29T11:37:33;0.68;;;0.68;;
65971;SDS011;52726;48.852;9.152;2023-07-29T11:39:59;0.60;;;0.60;;
65971;SDS011;52726;48.852;9.152;2023-07-29T11:42:26;0.70;;;0.70;;
65971;SDS011;52726;48.852;9.152;2023-07-29T11:44:52;1.13;;;1.00;;
65971;SDS011;52726;48.852;9.152;2023-07-29T11:47:18;0.80;;;0.80;;
65971;SDS011;52726;48.852;9.152;2023-07-29T11:49:43;2.88;;;0.80;;
65971;SDS011;52726;48.852;9.152;2023-07-29T11:52:09;1.17;;;1.02;;
65971;SDS011;52726;48.852;9.152;2023-07-29T11:54:36;1.05;;;0.95;;
65971;SDS011;52726;48.852;9.152;2023-07-29T11:57:11;1.42;;;0.90;;
65971;SDS011;52726;48.852;9.152;2023-07-29T11:59:38;0.93;;;0.85;;
65971;SDS011;52726;48.852;9.152;2023-07-29T12:02:05;1.00;;;1.00;;
65971;SDS011;52726;48.852;9.152;2023-07-29T12:04:38;2.67;;;0.90;;
65971;SDS011;52726;48.852;9.152;2023-07-29T12:07:05;1.13;;;0.90;;
65971;SDS011;52726;48.852;9.152;2023-07-29T12:09:31;0.88;;;0.88;;
65971;SDS011;52726;48.852;9.152;2023-07-29T12:11:57;0.88;;;0.88;;
65971;SDS011;52726;48.852;9.152;2023-07-29T12:14:25;1.02;;;1.02;;
65971;SDS011;52726;48.852;9.152;2023-07-29T12:16:52;0.85;;;0.85;;
65971;SDS011;52726;48.852;9.152;2023-07-29T12:19:18;1.58;;;0.95;;
65971;SDS011;52726;48.852;9.152;2023-07-29T12:21:44;2.08;;;1.10;;
65971;SDS011;52726;48.852;9.152;2023-07-29T12:24:13;1.45;;;1.00;;
65971;SDS011;52726;48.852;9.152;2023-07-29T12:26:39;2.83;;;1.35;;
65971;SDS011;52726;48.852;9.152;2023-07-29T12:29:15;1.25;;;1.17;;
65971;SDS011;52726;48.852;9.152;2023-07-29T12:31:44;1.20;;;1.10;;
65971;SDS011;52726;48.852;9.152;2023-07-29T12:34:10;1.45;;;1.35;;
65971;SDS011;52726;48.852;9.152;2023-07-29T12:36:44;1.10;;;1.10;;
65971;SDS011;52726;48.852;9.152;2023-07-29T12:39:19;3.53;;;1.52;;
65971;SDS011;52726;48.852;9.152;2023-07-29T12:41:47;1.92;;;1.10;;
65971;SDS011;52726;48.852;9.152;2023-07-29T12:44:13;1.05;;;0.90;;
65971;SDS011;52726;48.852;9.152;2023-07-29T12:46:38;1.33;;;1.23;;
65971;SDS011;52726;48.852;9.152;2023-07-29T12:49:04;1.27;;;1.17;;
65971;SDS011;52726;48.852;9.152;2023-07-29T12:51:29;1.17;;;1.08;;
65971;SDS011;52726;48.852;9.152;2023-07-29T12:53:55;1.35;;;1.20;;
65971;SDS011;52726;48.852;9.152;2023-07-29T12:56:20;1.23;;;1.13;;
65971;SDS011;52726;48.852;9.152;2023-07-29T12:58:45;1.35;;;1.10;;
65971;SDS011;52726;48.852;9.152;2023-07-29T13:01:10;2.03;;;1.40;;
65971;SDS011;52726;48.852;9.152;2023-07-29T13:03:41;1.40;;;1.30;;
65971;SDS011;52726;48.852;9.152;2023-07-29T13:06:07;1.42;;;1.25;;
65971;SDS011;52726;48.852;9.152;2023-07-29T13:08:32;1.13;;;1.05;;
65971;SDS011;52726;48.852;9.152;2023-07-29T13:10:57;1.20;;;1.10;;
65971;SDS011;52726;48.852;9.152;2023-07-29T13:13:23;1.38;;;1.20;;
65971;SDS011;52726;48.852;9.152;2023-07-29T13:15:48;1.20;;;1.10;;
65971;SDS011;52726;48.852;9.152;2023-07-29T13:18:13;1.08;;;1.08;;
65971;SDS011;52726;48.852;9.152;2023-07-29T13:20:38;1.95;;;1.10;;
65971;SDS011;52726;48.852;9.152;2023-07-29T13:23:04;1.60;;;1.30;;
65971;SDS011;52726;48.852;9.152;2023-07-29T13:25:29;1.27;;;1.17;;
65971;SDS011;52726;48.852;9.152;2023-07-29T13:27:54;1.02;;;1.00;;
65971;SDS011;52726;48.852;9.152;2023-07-29T13:30:20;1.30;;;1.20;;
65971;SDS011;52726;48.852;9.152;2023-07-29T13:32:45;5.07;;;1.15;;
65971;SDS011;52726;48.852;9.152;2023-07-29T13:35:10;1.20;;;1.10;;
65971;SDS011;52726;48.852;9.152;2023-07-29T13:37:36;1.63;;;1.20;;
65971;SDS011;52726;48.852;9.152;2023-07-29T13:40:01;1.30;;;1.20;;
65971;SDS011;52726;48.852;9.152;2023-07-29T13:42:27;3.40;;;1.40;;
65971;SDS011;52726;48.852;9.152;2023-07-29T13:44:53;0.93;;;0.93;;
65971;SDS011;52726;48.852;9.152;2023-07-29T13:47:18;1.10;;;1.10;;
65971;SDS011;52726;48.852;9.152;2023-07-29T13:49:43;1.33;;;1.23;;
65971;SDS011;52726;48.852;9.152;2023-07-29T13:52:09;1.10;;;1.00;;
65971;SDS011;52726;48.852;9.152;2023-07-29T13:54:34;1.92;;;1.25;;
65971;SDS011;52726;48.852;9.152;2023-07-29T13:57:00;1.45;;;1.20;;
65971;SDS011;52726;48.852;9.152;2023-07-29T13:59:25;1.42;;;1.20;;
65971;SDS011;52726;48.852;9.152;2023-07-29T14:01:50;2.67;;;1.23;;
65971;SDS011;52726;48.852;9.152;2023-07-29T14:04:16;1.80;;;1.40;;
65971;SDS011;52726;48.852;9.152;2023-07-29T14:06:41;1.17;;;1.08;;
65971;SDS011;52726;48.852;9.152;2023-07-29T14:09:06;1.17;;;1.10;;
65971;SDS011;52726;48.852;9.152;2023-07-29T14:11:32;1.58;;;1.48;;
65971;SDS011;52726;48.852;9.152;2023-07-29T14:13:57;1.55;;;1.10;;
65971;SDS011;52726;48.852;9.152;2023-07-29T14:16:22;1.65;;;1.10;;
65971;SDS011;52726;48.852;9.152;2023-07-29T14:18:48;2.00;;;1.20;;
65971;SDS011;52726;48.852;9.152;2023-07-29T14:21:13;1.27;;;1.17;;
65971;SDS011;52726;48.852;9.152;2023-07-29T14:23:38;2.75;;;1.25;;
65971;SDS011;52726;48.852;9.152;2023-07-29T14:26:03;1.42;;;1.30;;
65971;SDS011;52726;48.852;9.152;2023-07-29T14:28:29;3.90;;;0.90;;
65971;SDS011;52726;48.852;9.152;2023-07-29T14:30:55;1.30;;;1.20;;
65971;SDS011;52726;48.852;9.152;2023-07-29T14:33:20;0.98;;;0.98;;
65971;SDS011;52726;48.852;9.152;2023-07-29T14:35:45;4.00;;;1.40;;
65971;SDS011;52726;48.852;9.152;2023-07-29T14:38:11;1.02;;;0.90;;
65971;SDS011;52726;48.852;9.152;2023-07-29T14:40:36;1.45;;;1.30;;
65971;SDS011;52726;48.852;9.152;2023-07-29T14:43:01;1.83;;;1.48;;
65971;SDS011;52726;48.852;9.152;2023-07-29T14:45:26;1.45;;;1.20;;
65971;SDS011;52726;48.852;9.152;2023-07-29T14:47:52;1.38;;;1.10;;
65971;SDS011;52726;48.852;9.152;2023-07-29T14:50:17;1.50;;;1.40;;
65971;SDS011;52726;48.852;9.152;2023-07-29T14:52:42;1.33;;;1.30;;
65971;SDS011;52726;48.852;9.152;2023-07-29T14:55:08;1.20;;;1.10;;
65971;SDS011;52726;48.852;9.152;2023-07-29T14:57:33;1.48;;;1.38;;
65971;SDS011;52726;48.852;9.152;2023-07-29T14:59:59;2.60;;;1.15;;
65971;SDS011;52726;48.852;9.152;2023-07-29T15:02:24;6.40;;;1.52;;
65971;SDS011;52726;48.852;9.152;2023-07-29T15:04:50;1.63;;;1.10;;
65971;SDS011;52726;48.852;9.152;2023-07-29T15:07:16;1.83;;;1.33;;
65971;SDS011;52726;48.852;9.152;2023-07-29T15:09:41;2.08;;;1.20;;
65971;SDS011;52726;48.852;9.152;2023-07-29T15:12:06;2.67;;;1.20;;